LFKJ Airport Information

Runway Information
Runway 02 Length 7897 ft width 148 ft
Elevation 15 ft Threshold 0 ft Heading 25
Runway 20 Length 7897 ft Width 148 ft
Elevation 18 ft Threshold 744 ft Heading 205
Airport Frequencies
Type AFIS Name AFIS Frequency 119.825 MHZ
Type APP Name AJACCIO AP Frequency 121.05 MHZ
Type ATIS Name AJACCIO AT Frequency 126.925 MHZ
Type GND Name AJACCIO GN Frequency 121.7 MHZ
Type TWR Name AJACCIO TW Frequency 118.075 MHZ
Airport Navaids
Type NDB Name Ajaccio/Campo Dell Oro Frequency 341 KHZ
Airport Weather Information & NOTAM
ADDS - METARS form results

(0324 UTC 19 August 2018)
 
METAR text: LFKJ 190300Z AUTO 04006KT 010V070 CAVOK 19/15 Q1016 NOSIG
Conditions at: LFKJ (AJACCIO/CAMPO OR, FR) observed 0300 UTC 19 August 2018
Temperature: 19.0°C (66°F)
Dewpoint: 15.0°C (59°F) [RH = 78%]
Pressure (altimeter): 30.00 inches Hg (1016.0 mb)
Winds: from the NE (40 degrees) at 7 MPH (6 knots; 3.1 m/s)
Visibility: 6 or more miles (10+ km)
Ceiling: ceiling and visibility are OK
Clouds: unknown
Weather: no significant weather observed at this time

METAR text: LFKJ 190230Z AUTO 04005KT 010V070 CAVOK 19/16 Q1017 NOSIG
Conditions at: LFKJ (AJACCIO/CAMPO OR, FR) observed 0230 UTC 19 August 2018
Temperature: 19.0°C (66°F)
Dewpoint: 16.0°C (61°F) [RH = 83%]
Pressure (altimeter): 30.03 inches Hg (1017.0 mb)
Winds: from the NE (40 degrees) at 6 MPH (5 knots; 2.6 m/s)
Visibility: 6 or more miles (10+ km)
Ceiling: ceiling and visibility are OK
Clouds: unknown
Weather: no significant weather observed at this time